sensor_id;sensor_type;location;lat;lon;timestamp;pressure;altitude;pressure_sealevel;temperature;humidity
31483;BME280;18103;52.246;8.052;2024-03-02T00:00:02;98854.06;;;6.59;78.30
31483;BME280;18103;52.246;8.052;2024-03-02T00:02:40;98846.22;;;6.59;78.16
31483;BME280;18103;52.246;8.052;2024-03-02T00:05:06;98840.97;;;6.59;78.06
31483;BME280;18103;52.246;8.052;2024-03-02T00:07:31;98838.34;;;6.59;78.13
31483;BME280;18103;52.246;8.052;2024-03-02T00:09:57;98833.47;;;6.55;78.37
31483;BME280;18103;52.246;8.052;2024-03-02T00:12:22;98836.19;;;6.43;78.36
31483;BME280;18103;52.246;8.052;2024-03-02T00:14:48;98830.44;;;6.49;78.05
31483;BME280;18103;52.246;8.052;2024-03-02T00:17:20;98825.50;;;6.56;78.25
31483;BME280;18103;52.246;8.052;2024-03-02T00:19:46;98823.66;;;6.47;78.27
31483;BME280;18103;52.246;8.052;2024-03-02T00:22:12;98818.31;;;6.58;77.65
31483;BME280;18103;52.246;8.052;2024-03-02T00:24:38;98821.78;;;6.59;77.74
31483;BME280;18103;52.246;8.052;2024-03-02T00:27:05;98814.47;;;6.62;77.67
31483;BME280;18103;52.246;8.052;2024-03-02T00:29:32;98816.34;;;6.50;77.60
31483;BME280;18103;52.246;8.052;2024-03-02T00:31:58;98817.38;;;6.59;77.52
31483;BME280;18103;52.246;8.052;2024-03-02T00:34:23;98810.16;;;6.51;77.76
31483;BME280;18103;52.246;8.052;2024-03-02T00:36:49;98812.41;;;6.56;77.78
31483;BME280;18103;52.246;8.052;2024-03-02T00:39:18;98819.59;;;6.64;77.48
31483;BME280;18103;52.246;8.052;2024-03-02T00:41:44;98819.88;;;6.61;77.41
31483;BME280;18103;52.246;8.052;2024-03-02T00:44:15;98827.53;;;6.43;78.21
31483;BME280;18103;52.246;8.052;2024-03-02T00:46:42;98818.28;;;6.48;77.97
31483;BME280;18103;52.246;8.052;2024-03-02T00:49:21;98818.75;;;6.54;77.97
31483;BME280;18103;52.246;8.052;2024-03-02T00:51:51;98819.97;;;6.49;77.96
31483;BME280;18103;52.246;8.052;2024-03-02T00:54:22;98819.41;;;6.56;77.84
31483;BME280;18103;52.246;8.052;2024-03-02T00:56:54;98822.47;;;6.61;77.94
31483;BME280;18103;52.246;8.052;2024-03-02T00:59:21;98817.41;;;6.69;77.61
31483;BME280;18103;52.246;8.052;2024-03-02T01:01:48;98822.66;;;6.69;77.45
31483;BME280;18103;52.246;8.052;2024-03-02T01:04:16;98812.69;;;6.63;77.68
31483;BME280;18103;52.246;8.052;2024-03-02T01:06:45;98816.13;;;6.54;77.88
31483;BME280;18103;52.246;8.052;2024-03-02T01:09:11;98813.22;;;6.57;78.08
31483;BME280;18103;52.246;8.052;2024-03-02T01:11:37;98806.63;;;6.62;77.85
31483;BME280;18103;52.246;8.052;2024-03-02T01:14:02;98795.41;;;6.60;77.65
31483;BME280;18103;52.246;8.052;2024-03-02T01:16:29;98793.75;;;6.49;78.02
31483;BME280;18103;52.246;8.052;2024-03-02T01:18:54;98798.06;;;6.70;77.87
31483;BME280;18103;52.246;8.052;2024-03-02T01:21:23;98800.59;;;6.72;77.43
31483;BME280;18103;52.246;8.052;2024-03-02T01:23:51;98796.25;;;6.61;77.76
31483;BME280;18103;52.246;8.052;2024-03-02T01:26:16;98789.75;;;6.55;78.16
31483;BME280;18103;52.246;8.052;2024-03-02T01:28:42;98801.78;;;6.58;77.80
31483;BME280;18103;52.246;8.052;2024-03-02T01:31:07;98792.25;;;6.57;77.99
31483;BME280;18103;52.246;8.052;2024-03-02T01:33:34;98791.03;;;6.61;77.67
31483;BME280;18103;52.246;8.052;2024-03-02T01:36:02;98795.34;;;6.72;77.53
31483;BME280;18103;52.246;8.052;2024-03-02T01:38:27;98791.97;;;6.60;77.70
31483;BME280;18103;52.246;8.052;2024-03-02T01:40:56;98791.28;;;6.58;77.69
31483;BME280;18103;52.246;8.052;2024-03-02T01:43:22;98788.53;;;6.59;77.83
31483;BME280;18103;52.246;8.052;2024-03-02T01:45:47;98778.31;;;6.56;78.09
31483;BME280;18103;52.246;8.052;2024-03-02T01:48:13;98783.81;;;6.53;77.96
31483;BME280;18103;52.246;8.052;2024-03-02T01:50:40;98781.47;;;6.50;78.27
31483;BME280;18103;52.246;8.052;2024-03-02T01:53:06;98771.53;;;6.44;78.51
31483;BME280;18103;52.246;8.052;2024-03-02T01:55:33;98776.34;;;6.48;78.19
31483;BME280;18103;52.246;8.052;2024-03-02T01:58:01;98769.06;;;6.52;78.47
31483;BME280;18103;52.246;8.052;2024-03-02T02:00:27;98767.50;;;6.40;78.57
31483;BME280;18103;52.246;8.052;2024-03-02T02:02:53;98766.81;;;6.47;78.44
31483;BME280;18103;52.246;8.052;2024-03-02T02:05:19;98764.47;;;6.44;78.49
31483;BME280;18103;52.246;8.052;2024-03-02T02:07:44;98766.44;;;6.52;78.01
31483;BME280;18103;52.246;8.052;2024-03-02T02:10:10;98755.13;;;6.51;78.03
31483;BME280;18103;52.246;8.052;2024-03-02T02:12:36;98754.56;;;6.48;78.11
31483;BME280;18103;52.246;8.052;2024-03-02T02:15:02;98755.13;;;6.51;78.12
31483;BME280;18103;52.246;8.052;2024-03-02T02:17:28;98756.22;;;6.49;78.20
31483;BME280;18103;52.246;8.052;2024-03-02T02:19:53;98744.75;;;6.40;78.78
31483;BME280;18103;52.246;8.052;2024-03-02T02:22:19;98743.94;;;6.40;78.60
31483;BME280;18103;52.246;8.052;2024-03-02T02:24:47;98738.50;;;6.31;78.83
31483;BME280;18103;52.246;8.052;2024-03-02T02:27:13;98731.59;;;6.30;79.12
31483;BME280;18103;52.246;8.052;2024-03-02T02:29:41;98732.72;;;6.38;78.72
31483;BME280;18103;52.246;8.052;2024-03-02T02:32:06;98730.09;;;6.28;79.11
31483;BME280;18103;52.246;8.052;2024-03-02T02:34:34;98739.59;;;6.29;79.10
31483;BME280;18103;52.246;8.052;2024-03-02T02:37:00;98727.03;;;6.13;79.55
31483;BME280;18103;52.246;8.052;2024-03-02T02:39:26;98716.88;;;6.39;78.52
31483;BME280;18103;52.246;8.052;2024-03-02T02:41:51;98713.41;;;6.29;78.75
31483;BME280;18103;52.246;8.052;2024-03-02T02:44:19;98713.72;;;6.36;78.89
31483;BME280;18103;52.246;8.052;2024-03-02T02:46:45;98722.31;;;6.16;79.44
31483;BME280;18103;52.246;8.052;2024-03-02T02:49:11;98728.47;;;6.37;78.61
31483;BME280;18103;52.246;8.052;2024-03-02T02:51:36;98717.84;;;6.28;78.90
31483;BME280;18103;52.246;8.052;2024-03-02T02:54:01;98724.31;;;6.34;78.70
31483;BME280;18103;52.246;8.052;2024-03-02T02:56:28;98724.84;;;6.28;78.64
31483;BME280;18103;52.246;8.052;2024-03-02T02:58:56;98721.25;;;6.19;79.22
31483;BME280;18103;52.246;8.052;2024-03-02T03:01:22;98717.25;;;6.25;79.30
31483;BME280;18103;52.246;8.052;2024-03-02T03:03:53;98708.28;;;6.18;79.44
31483;BME280;18103;52.246;8.052;2024-03-02T03:06:18;98707.31;;;6.19;79.26
31483;BME280;18103;52.246;8.052;2024-03-02T03:08:48;98709.63;;;6.12;79.78
31483;BME280;18103;52.246;8.052;2024-03-02T03:11:16;98706.16;;;6.02;79.93
31483;BME280;18103;52.246;8.052;2024-03-02T03:13:44;98713.34;;;6.09;79.77
31483;BME280;18103;52.246;8.052;2024-03-02T03:16:10;98714.13;;;6.00;80.31
31483;BME280;18103;52.246;8.052;2024-03-02T03:18:35;98708.94;;;6.10;80.04
31483;BME280;18103;52.246;8.052;2024-03-02T03:21:03;98711.13;;;6.05;79.96
31483;BME280;18103;52.246;8.052;2024-03-02T03:23:30;98714.69;;;6.04;79.93
31483;BME280;18103;52.246;8.052;2024-03-02T03:25:57;98711.53;;;6.10;79.99
31483;BME280;18103;52.246;8.052;2024-03-02T03:28:22;98710.28;;;6.04;80.60
31483;BME280;18103;52.246;8.052;2024-03-02T03:30:47;98711.00;;;6.06;80.00
31483;BME280;18103;52.246;8.052;2024-03-02T03:33:13;98716.28;;;6.16;79.71
31483;BME280;18103;52.246;8.052;2024-03-02T03:35:38;98719.13;;;6.03;80.23
31483;BME280;18103;52.246;8.052;2024-03-02T03:38:06;98724.00;;;6.18;79.34
31483;BME280;18103;52.246;8.052;2024-03-02T03:40:31;98722.72;;;6.12;79.62
31483;BME280;18103;52.246;8.052;2024-03-02T03:42:57;98716.69;;;6.11;79.97
31483;BME280;18103;52.246;8.052;2024-03-02T03:45:23;98718.84;;;6.06;80.34
31483;BME280;18103;52.246;8.052;2024-03-02T03:47:51;98716.97;;;5.97;80.46
31483;BME280;18103;52.246;8.052;2024-03-02T03:50:19;98712.56;;;5.88;81.09
31483;BME280;18103;52.246;8.052;2024-03-02T03:52:46;98713.22;;;5.90;81.11
31483;BME280;18103;52.246;8.052;2024-03-02T03:55:11;98715.78;;;6.01;80.55
31483;BME280;18103;52.246;8.052;2024-03-02T03:57:37;98711.63;;;5.98;80.89
31483;BME280;18103;52.246;8.052;2024-03-02T04:00:03;98719.97;;;6.13;80.06
31483;BME280;18103;52.246;8.052;2024-03-02T04:02:28;98727.59;;;5.95;80.36
31483;BME280;18103;52.246;8.052;2024-03-02T04:04:54;98730.28;;;6.05;80.58
31483;BME280;18103;52.246;8.052;2024-03-02T04:07:19;98727.56;;;6.16;79.71
31483;BME280;18103;52.246;8.052;2024-03-02T04:09:47;98726.03;;;6.14;80.04
31483;BME280;18103;52.246;8.052;2024-03-02T04:12:12;98733.25;;;6.22;79.72
31483;BME280;18103;52.246;8.052;2024-03-02T04:14:38;98730.31;;;6.15;79.63
31483;BME280;18103;52.246;8.052;2024-03-02T04:17:04;98729.88;;;6.10;80.27
31483;BME280;18103;52.246;8.052;2024-03-02T04:19:29;98719.94;;;6.04;80.35
31483;BME280;18103;52.246;8.052;2024-03-02T04:21:54;98721.88;;;6.02;80.73
31483;BME280;18103;52.246;8.052;2024-03-02T04:24:20;98726.31;;;6.11;79.95
31483;BME280;18103;52.246;8.052;2024-03-02T04:26:46;98725.22;;;6.13;79.62
31483;BME280;18103;52.246;8.052;2024-03-02T04:29:14;98727.47;;;5.97;80.34
31483;BME280;18103;52.246;8.052;2024-03-02T04:31:39;98738.03;;;5.86;81.54
31483;BME280;18103;52.246;8.052;2024-03-02T04:34:07;98741.09;;;5.91;81.18
31483;BME280;18103;52.246;8.052;2024-03-02T04:36:34;98736.53;;;5.93;80.97
31483;BME280;18103;52.246;8.052;2024-03-02T04:39:00;98735.97;;;5.89;81.58
31483;BME280;18103;52.246;8.052;2024-03-02T04:41:25;98742.34;;;5.96;80.94
31483;BME280;18103;52.246;8.052;2024-03-02T04:43:52;98734.97;;;6.02;80.75
31483;BME280;18103;52.246;8.052;2024-03-02T04:46:18;98742.34;;;5.96;81.20
31483;BME280;18103;52.246;8.052;2024-03-02T04:48:44;98742.84;;;5.90;81.48
31483;BME280;18103;52.246;8.052;2024-03-02T04:51:11;98744.75;;;5.78;81.55
31483;BME280;18103;52.246;8.052;2024-03-02T04:53:38;98740.19;;;5.80;81.70
31483;BME280;18103;52.246;8.052;2024-03-02T04:56:04;98743.91;;;5.78;82.43
31483;BME280;18103;52.246;8.052;2024-03-02T04:58:50;98755.47;;;5.75;82.54
31483;BME280;18103;52.246;8.052;2024-03-02T05:01:15;98747.81;;;5.83;82.31
31483;BME280;18103;52.246;8.052;2024-03-02T05:03:42;98750.03;;;5.88;82.01
31483;BME280;18103;52.246;8.052;2024-03-02T05:06:10;98754.00;;;5.82;82.53
31483;BME280;18103;52.246;8.052;2024-03-02T05:08:35;98755.34;;;5.77;82.45
31483;BME280;18103;52.246;8.052;2024-03-02T05:11:01;98753.03;;;5.83;82.46
31483;BME280;18103;52.246;8.052;2024-03-02T05:13:46;98757.56;;;5.81;82.50
31483;BME280;18103;52.246;8.052;2024-03-02T05:16:11;98761.97;;;5.81;82.44
31483;BME280;18103;52.246;8.052;2024-03-02T05:18:39;98757.69;;;5.80;83.12
31483;BME280;18103;52.246;8.052;2024-03-02T05:21:07;98753.22;;;5.92;82.54
31483;BME280;18103;52.246;8.052;2024-03-02T05:23:33;98740.81;;;5.94;81.95
31483;BME280;18103;52.246;8.052;2024-03-02T05:25:59;98755.34;;;5.98;81.75
31483;BME280;18103;52.246;8.052;2024-03-02T05:28:24;98757.75;;;5.90;81.93
31483;BME280;18103;52.246;8.052;2024-03-02T05:30:50;98753.34;;;5.90;82.82
31483;BME280;18103;52.246;8.052;2024-03-02T05:33:15;98754.25;;;6.01;81.88
31483;BME280;18103;52.246;8.052;2024-03-02T05:35:40;98760.09;;;5.93;82.06
31483;BME280;18103;52.246;8.052;2024-03-02T05:38:06;98758.00;;;5.87;82.67
31483;BME280;18103;52.246;8.052;2024-03-02T05:40:31;98759.97;;;5.94;82.64
31483;BME280;18103;52.246;8.052;2024-03-02T05:42:56;98757.75;;;5.90;82.52
31483;BME280;18103;52.246;8.052;2024-03-02T05:45:22;98766.31;;;5.92;82.34
31483;BME280;18103;52.246;8.052;2024-03-02T05:47:50;98769.72;;;5.82;83.11
31483;BME280;18103;52.246;8.052;2024-03-02T05:50:15;98768.94;;;5.92;83.20
31483;BME280;18103;52.246;8.052;2024-03-02T05:52:41;98761.09;;;5.92;82.91
31483;BME280;18103;52.246;8.052;2024-03-02T05:55:06;98766.97;;;5.84;83.08
31483;BME280;18103;52.246;8.052;2024-03-02T05:57:32;98776.59;;;5.83;83.36
31483;BME280;18103;52.246;8.052;2024-03-02T06:00:08;98776.53;;;5.95;82.79
31483;BME280;18103;52.246;8.052;2024-03-02T06:02:33;98780.38;;;5.91;82.57
31483;BME280;18103;52.246;8.052;2024-03-02T06:05:00;98774.19;;;5.92;82.67
31483;BME280;18103;52.246;8.052;2024-03-02T06:07:25;98782.84;;;5.92;83.05
31483;BME280;18103;52.246;8.052;2024-03-02T06:09:51;98783.94;;;5.90;82.71
31483;BME280;18103;52.246;8.052;2024-03-02T06:12:18;98785.16;;;5.86;83.16
31483;BME280;18103;52.246;8.052;2024-03-02T06:14:43;98787.38;;;5.90;83.21
31483;BME280;18103;52.246;8.052;2024-03-02T06:17:09;98782.41;;;5.87;83.41
31483;BME280;18103;52.246;8.052;2024-03-02T06:19:35;98784.47;;;5.83;83.77
31483;BME280;18103;52.246;8.052;2024-03-02T06:22:01;98793.91;;;5.75;84.69
31483;BME280;18103;52.246;8.052;2024-03-02T06:24:26;98792.75;;;5.89;84.19
31483;BME280;18103;52.246;8.052;2024-03-02T06:26:52;98794.22;;;5.81;84.14
31483;BME280;18103;52.246;8.052;2024-03-02T06:29:17;98799.31;;;5.83;83.96
31483;BME280;18103;52.246;8.052;2024-03-02T06:31:43;98796.63;;;5.94;83.97
31483;BME280;18103;52.246;8.052;2024-03-02T06:34:10;98801.69;;;5.86;84.04
31483;BME280;18103;52.246;8.052;2024-03-02T06:36:39;98807.09;;;5.94;84.83
31483;BME280;18103;52.246;8.052;2024-03-02T06:39:05;98798.63;;;5.81;84.81
31483;BME280;18103;52.246;8.052;2024-03-02T06:41:33;98785.16;;;5.86;84.87
31483;BME280;18103;52.246;8.052;2024-03-02T06:43:58;98787.63;;;5.87;84.67
31483;BME280;18103;52.246;8.052;2024-03-02T06:46:27;98792.81;;;5.98;83.60
31483;BME280;18103;52.246;8.052;2024-03-02T06:48:53;98798.97;;;5.88;84.66
31483;BME280;18103;52.246;8.052;2024-03-02T06:51:19;98800.59;;;5.89;84.54
31483;BME280;18103;52.246;8.052;2024-03-02T06:53:44;98807.50;;;5.90;84.71
31483;BME280;18103;52.246;8.052;2024-03-02T06:56:09;98809.13;;;5.81;84.98
31483;BME280;18103;52.246;8.052;2024-03-02T06:58:35;98810.84;;;5.92;84.89
31483;BME280;18103;52.246;8.052;2024-03-02T07:01:00;98810.22;;;5.99;84.35
31483;BME280;18103;52.246;8.052;2024-03-02T07:03:26;98815.19;;;6.03;84.05
31483;BME280;18103;52.246;8.052;2024-03-02T07:05:51;98819.25;;;5.95;84.45
31483;BME280;18103;52.246;8.052;2024-03-02T07:08:16;98819.25;;;5.95;84.47
31483;BME280;18103;52.246;8.052;2024-03-02T07:10:44;98823.22;;;6.11;84.06
31483;BME280;18103;52.246;8.052;2024-03-02T07:13:10;98822.59;;;6.19;83.81
31483;BME280;18103;52.246;8.052;2024-03-02T07:15:35;98818.06;;;6.30;83.53
31483;BME280;18103;52.246;8.052;2024-03-02T07:18:03;98817.06;;;6.53;83.27
31483;BME280;18103;52.246;8.052;2024-03-02T07:20:29;98830.00;;;6.44;83.17
31483;BME280;18103;52.246;8.052;2024-03-02T07:22:54;98823.88;;;6.65;82.85
31483;BME280;18103;52.246;8.052;2024-03-02T07:25:20;98825.03;;;6.82;83.01
31483;BME280;18103;52.246;8.052;2024-03-02T07:27:45;98828.63;;;6.91;82.16
31483;BME280;18103;52.246;8.052;2024-03-02T07:30:14;98831.84;;;7.14;82.26
31483;BME280;18103;52.246;8.052;2024-03-02T07:32:41;98833.94;;;7.30;81.59
31483;BME280;18103;52.246;8.052;2024-03-02T07:35:13;98830.06;;;7.44;81.18
31483;BME280;18103;52.246;8.052;2024-03-02T07:37:41;98833.66;;;7.33;81.33
31483;BME280;18103;52.246;8.052;2024-03-02T07:40:07;98837.94;;;7.63;80.96
31483;BME280;18103;52.246;8.052;2024-03-02T07:42:37;98832.41;;;7.57;81.28
31483;BME280;18103;52.246;8.052;2024-03-02T07:45:04;98838.38;;;7.59;80.46
31483;BME280;18103;52.246;8.052;2024-03-02T07:47:30;98846.44;;;8.24;79.45
31483;BME280;18103;52.246;8.052;2024-03-02T07:49:58;98843.22;;;8.30;78.78
31483;BME280;18103;52.246;8.052;2024-03-02T07:52:25;98840.69;;;8.38;77.26
31483;BME280;18103;52.246;8.052;2024-03-02T07:54:51;98848.88;;;8.45;78.66
31483;BME280;18103;52.246;8.052;2024-03-02T07:57:17;98849.69;;;8.36;78.10
31483;BME280;18103;52.246;8.052;2024-03-02T07:59:43;98851.47;;;8.55;77.70
31483;BME280;18103;52.246;8.052;2024-03-02T08:02:08;98853.22;;;8.64;76.12
31483;BME280;18103;52.246;8.052;2024-03-02T08:04:37;98854.97;;;8.73;75.57
31483;BME280;18103;52.246;8.052;2024-03-02T08:07:06;98871.97;;;9.07;75.23
31483;BME280;18103;52.246;8.052;2024-03-02T08:09:35;98862.28;;;9.07;75.13
31483;BME280;18103;52.246;8.052;2024-03-02T08:12:08;98868.19;;;9.37;76.16
31483;BME280;18103;52.246;8.052;2024-03-02T08:14:36;98876.03;;;9.47;75.05
31483;BME280;18103;52.246;8.052;2024-03-02T08:17:06;98869.00;;;9.38;73.79
31483;BME280;18103;52.246;8.052;2024-03-02T08:19:39;98877.03;;;9.90;74.03
31483;BME280;18103;52.246;8.052;2024-03-02T08:22:09;98881.09;;;9.85;72.79
31483;BME280;18103;52.246;8.052;2024-03-02T08:24:35;98875.66;;;9.60;72.47
31483;BME280;18103;52.246;8.052;2024-03-02T08:27:01;98872.28;;;9.94;72.15
31483;BME280;18103;52.246;8.052;2024-03-02T08:29:39;98870.88;;;9.82;71.11
31483;BME280;18103;52.246;8.052;2024-03-02T08:32:30;98881.44;;;10.26;72.32
31483;BME280;18103;52.246;8.052;2024-03-02T08:35:06;98873.88;;;10.05;70.85
31483;BME280;18103;52.246;8.052;2024-03-02T08:37:32;98885.91;;;10.34;70.18
31483;BME280;18103;52.246;8.052;2024-03-02T08:39:57;98897.34;;;10.34;70.69
31483;BME280;18103;52.246;8.052;2024-03-02T08:42:23;98874.84;;;10.48;70.53
31483;BME280;18103;52.246;8.052;2024-03-02T08:44:51;98888.19;;;10.47;69.74
31483;BME280;18103;52.246;8.052;2024-03-02T08:47:19;98881.41;;;10.44;68.64
31483;BME280;18103;52.246;8.052;2024-03-02T08:49:48;98905.47;;;10.75;69.77
31483;BME280;18103;52.246;8.052;2024-03-02T08:52:16;98891.22;;;10.60;68.78
31483;BME280;18103;52.246;8.052;2024-03-02T08:54:43;98907.25;;;10.67;67.52
31483;BME280;18103;52.246;8.052;2024-03-02T08:57:09;98906.28;;;10.68;69.05
31483;BME280;18103;52.246;8.052;2024-03-02T08:59:40;98898.28;;;10.94;68.44
31483;BME280;18103;52.246;8.052;2024-03-02T09:02:06;98897.22;;;10.78;67.54
31483;BME280;18103;52.246;8.052;2024-03-02T09:04:31;98889.25;;;11.05;67.89
31483;BME280;18103;52.246;8.052;2024-03-02T09:06:58;98893.19;;;11.01;67.17
31483;BME280;18103;52.246;8.052;2024-03-02T09:09:23;98888.16;;;11.16;66.77
31483;BME280;18103;52.246;8.052;2024-03-02T09:11:56;98895.22;;;11.07;66.65
31483;BME280;18103;52.246;8.052;2024-03-02T09:14:23;98895.72;;;11.10;66.54
31483;BME280;18103;52.246;8.052;2024-03-02T09:16:51;98888.81;;;11.26;67.11
31483;BME280;18103;52.246;8.052;2024-03-02T09:19:21;98891.66;;;11.33;66.50
31483;BME280;18103;52.246;8.052;2024-03-02T09:21:48;98893.81;;;11.37;66.73
31483;BME280;18103;52.246;8.052;2024-03-02T09:24:15;98894.19;;;11.51;66.38
31483;BME280;18103;52.246;8.052;2024-03-02T09:26:43;98904.41;;;11.54;66.15
31483;BME280;18103;52.246;8.052;2024-03-02T09:29:10;98901.75;;;11.45;65.35
31483;BME280;18103;52.246;8.052;2024-03-02T09:31:42;98904.09;;;11.49;64.89
31483;BME280;18103;52.246;8.052;2024-03-02T09:34:08;98898.34;;;11.61;65.26
31483;BME280;18103;52.246;8.052;2024-03-02T09:36:35;98903.13;;;11.66;65.37
31483;BME280;18103;52.246;8.052;2024-03-02T09:39:01;98905.63;;;11.92;65.57
31483;BME280;18103;52.246;8.052;2024-03-02T09:41:29;98908.25;;;11.92;65.97
31483;BME280;18103;52.246;8.052;2024-03-02T09:43:57;98907.78;;;12.05;65.77
31483;BME280;18103;52.246;8.052;2024-03-02T09:46:25;98911.25;;;11.97;64.46
31483;BME280;18103;52.246;8.052;2024-03-02T09:48:51;98899.03;;;12.13;64.75
31483;BME280;18103;52.246;8.052;2024-03-02T09:51:21;98908.94;;;12.11;63.75
31483;BME280;18103;52.246;8.052;2024-03-02T09:53:47;98906.78;;;11.90;63.85
31483;BME280;18103;52.246;8.052;2024-03-02T09:56:13;98904.16;;;12.06;62.55
31483;BME280;18103;52.246;8.052;2024-03-02T09:58:41;98899.69;;;12.23;64.49
31483;BME280;18103;52.246;8.052;2024-03-02T10:01:07;98897.56;;;12.19;64.98
31483;BME280;18103;52.246;8.052;2024-03-02T10:03:36;98902.97;;;11.92;64.94
31483;BME280;18103;52.246;8.052;2024-03-02T10:06:22;98902.00;;;12.02;63.53
31483;BME280;18103;52.246;8.052;2024-03-02T10:08:50;98895.22;;;11.91;63.19
31483;BME280;18103;52.246;8.052;2024-03-02T10:11:32;98896.22;;;11.98;63.96
31483;BME280;18103;52.246;8.052;2024-03-02T10:14:08;98906.31;;;12.03;62.41
31483;BME280;18103;52.246;8.052;2024-03-02T10:16:41;98899.84;;;12.05;64.71
31483;BME280;18103;52.246;8.052;2024-03-02T10:19:20;98895.22;;;12.07;64.81
31483;BME280;18103;52.246;8.052;2024-03-02T10:21:51;98888.56;;;11.62;63.51
31483;BME280;18103;52.246;8.052;2024-03-02T10:24:17;98890.72;;;11.58;64.00
31483;BME280;18103;52.246;8.052;2024-03-02T10:26:51;98885.13;;;11.70;63.57
31483;BME280;18103;52.246;8.052;2024-03-02T10:29:22;98880.66;;;11.78;64.20
31483;BME280;18103;52.246;8.052;2024-03-02T10:31:54;98883.31;;;11.87;65.65
31483;BME280;18103;52.246;8.052;2024-03-02T10:34:19;98884.66;;;11.99;65.15
31483;BME280;18103;52.246;8.052;2024-03-02T10:36:47;98889.13;;;11.98;65.07
31483;BME280;18103;52.246;8.052;2024-03-02T10:39:13;98892.59;;;11.99;64.62
31483;BME280;18103;52.246;8.052;2024-03-02T10:41:46;98885.97;;;11.87;64.72
31483;BME280;18103;52.246;8.052;2024-03-02T10:44:14;98891.13;;;11.96;64.24
31483;BME280;18103;52.246;8.052;2024-03-02T10:46:41;98889.44;;;12.12;64.69
31483;BME280;18103;52.246;8.052;2024-03-02T10:49:10;98892.56;;;12.15;64.92
31483;BME280;18103;52.246;8.052;2024-03-02T10:51:41;98889.56;;;12.27;61.96
31483;BME280;18103;52.246;8.052;2024-03-02T10:54:07;98886.47;;;12.23;64.17
31483;BME280;18103;52.246;8.052;2024-03-02T10:56:39;98882.16;;;11.97;64.23
31483;BME280;18103;52.246;8.052;2024-03-02T10:59:16;98885.13;;;12.27;62.82
31483;BME280;18103;52.246;8.052;2024-03-02T11:01:47;98884.28;;;12.27;64.33
31483;BME280;18103;52.246;8.052;2024-03-02T11:04:15;98880.84;;;12.10;63.55
31483;BME280;18103;52.246;8.052;2024-03-02T11:06:50;98874.72;;;12.18;64.66
31483;BME280;18103;52.246;8.052;2024-03-02T11:09:21;98878.34;;;12.25;64.39
31483;BME280;18103;52.246;8.052;2024-03-02T11:12:03;98875.84;;;12.48;62.92
31483;BME280;18103;52.246;8.052;2024-03-02T11:14:32;98879.69;;;12.12;63.02
31483;BME280;18103;52.246;8.052;2024-03-02T11:17:00;98864.50;;;12.14;62.73
31483;BME280;18103;52.246;8.052;2024-03-02T11:19:29;98877.03;;;12.29;63.58
31483;BME280;18103;52.246;8.052;2024-03-02T11:21:56;98876.81;;;12.47;64.01
31483;BME280;18103;52.246;8.052;2024-03-02T11:26:53;98889.25;;;12.38;63.07
31483;BME280;18103;52.246;8.052;2024-03-02T11:32:04;98878.63;;;12.46;62.49
31483;BME280;18103;52.246;8.052;2024-03-02T11:34:31;98883.72;;;12.56;60.72
31483;BME280;18103;52.246;8.052;2024-03-02T11:37:01;98875.31;;;12.61;62.99
31483;BME280;18103;52.246;8.052;2024-03-02T11:39:27;98891.06;;;12.38;62.22
31483;BME280;18103;52.246;8.052;2024-03-02T11:41:53;98888.56;;;12.44;61.65
31483;BME280;18103;52.246;8.052;2024-03-02T11:44:19;98890.25;;;12.37;62.46
31483;BME280;18103;52.246;8.052;2024-03-02T11:47:00;98887.25;;;12.96;60.59
31483;BME280;18103;52.246;8.052;2024-03-02T11:49:46;98883.91;;;13.03;62.79
31483;BME280;18103;52.246;8.052;2024-03-02T11:52:14;98877.56;;;13.12;62.19
31483;BME280;18103;52.246;8.052;2024-03-02T11:54:47;98876.97;;;13.01;62.32
31483;BME280;18103;52.246;8.052;2024-03-02T11:57:16;98873.00;;;12.58;61.55
31483;BME280;18103;52.246;8.052;2024-03-02T11:59:46;98867.25;;;12.86;62.63
31483;BME280;18103;52.246;8.052;2024-03-02T12:02:16;98859.97;;;12.88;61.76
31483;BME280;18103;52.246;8.052;2024-03-02T12:04:44;98857.50;;;12.86;62.52
31483;BME280;18103;52.246;8.052;2024-03-02T12:07:11;98861.75;;;12.47;62.59
31483;BME280;18103;52.246;8.052;2024-03-02T12:09:39;98865.47;;;12.78;63.06
31483;BME280;18103;52.246;8.052;2024-03-02T12:12:09;98859.03;;;12.72;63.41
31483;BME280;18103;52.246;8.052;2024-03-02T12:14:38;98859.59;;;12.59;63.30
31483;BME280;18103;52.246;8.052;2024-03-02T12:17:06;98848.25;;;12.82;64.19
31483;BME280;18103;52.246;8.052;2024-03-02T12:19:32;98852.22;;;12.86;63.12
31483;BME280;18103;52.246;8.052;2024-03-02T12:21:59;98847.06;;;12.93;63.07
31483;BME280;18103;52.246;8.052;2024-03-02T12:24:27;98841.28;;;12.81;63.36
31483;BME280;18103;52.246;8.052;2024-03-02T12:26:53;98844.31;;;12.70;62.74
31483;BME280;18103;52.246;8.052;2024-03-02T12:29:22;98843.16;;;12.72;62.76
31483;BME280;18103;52.246;8.052;2024-03-02T12:31:48;98842.38;;;12.95;63.88
31483;BME280;18103;52.246;8.052;2024-03-02T12:34:18;98847.69;;;12.55;62.91
31483;BME280;18103;52.246;8.052;2024-03-02T12:36:45;98842.91;;;12.90;62.95
31483;BME280;18103;52.246;8.052;2024-03-02T12:39:13;98848.72;;;12.86;63.37
31483;BME280;18103;52.246;8.052;2024-03-02T12:41:39;98838.56;;;12.97;63.71
31483;BME280;18103;52.246;8.052;2024-03-02T12:44:05;98837.75;;;12.97;62.17
31483;BME280;18103;52.246;8.052;2024-03-02T12:46:32;98850.16;;;12.57;62.34
31483;BME280;18103;52.246;8.052;2024-03-02T12:48:58;98852.69;;;12.42;62.01
31483;BME280;18103;52.246;8.052;2024-03-02T12:51:30;98846.28;;;12.20;62.11
31483;BME280;18103;52.246;8.052;2024-03-02T12:54:00;98841.53;;;12.63;62.38
31483;BME280;18103;52.246;8.052;2024-03-02T12:56:29;98837.88;;;12.72;62.87
31483;BME280;18103;52.246;8.052;2024-03-02T12:58:57;98839.00;;;12.78;61.76
31483;BME280;18103;52.246;8.052;2024-03-02T13:01:22;98832.81;;;12.86;61.97
31483;BME280;18103;52.246;8.052;2024-03-02T13:03:53;98826.69;;;12.54;62.16
31483;BME280;18103;52.246;8.052;2024-03-02T13:06:20;98832.44;;;12.65;61.76
31483;BME280;18103;52.246;8.052;2024-03-02T13:08:47;98830.03;;;12.87;61.97
31483;BME280;18103;52.246;8.052;2024-03-02T13:11:16;98834.94;;;12.98;61.67
31483;BME280;18103;52.246;8.052;2024-03-02T13:13:43;98829.75;;;13.05;60.41